Time;durP1;ratioP1;P1;durP2;ratioP2;P2;SDS_P1;SDS_P2;PMS_P1;PMS_P2;Temp;Humidity;BMP_temperature;BMP_pressure;BME280_temperature;BME280_humidity;BME280_pressure;Samples;Min_cycle;Max_cycle;Signal;HPM_P1;HPM_P2
2021/12/11 05:11:31;;;;;;;;;;;6.30;99.90;;;;;;5084823;27;2532841;-91
2021/12/11 05:13:56;;;;;;;;;;;6.30;99.90;;;;;;5174431;27;19959;-91
2021/12/11 05:16:22;;;;;;;;;;;6.30;99.90;;;;;;5155447;27;19911;-91
2021/12/11 05:18:48;;;;;;;;;;;6.40;99.90;;;;;;5155413;27;19914;-93
2021/12/11 05:21:16;;;;;;;;;;;6.50;99.90;;;;;;5173972;27;19907;-92
2021/12/11 05:23:41;;;;;;;;;;;6.60;99.90;;;;;;5155328;27;20002;-92
2021/12/11 05:26:07;;;;;;;;;;;6.60;99.90;;;;;;5155465;27;19972;-91
2021/12/11 14:55:56;;;;;;;;;;;5.80;99.90;;;;;;5125415;27;19912;-91
2021/12/11 14:58:22;;;;;;;;;;;5.80;99.90;;;;;;5090439;28;20414;-92
2021/12/11 15:00:53;;;;;;;;;;;5.90;99.90;;;;;;5090361;28;19954;-93
2021/12/11 15:03:19;;;;;;;;;;;6.00;99.90;;;;;;5090303;28;19908;-93
2021/12/11 15:05:45;;;;;;;;;;;6.20;99.90;;;;;;5090330;28;20003;-92
2021/12/11 15:08:14;;;;;;;;;;;6.30;99.90;;;;;;5090308;28;20000;-91
2021/12/11 15:10:40;;;;;;;;;;;6.40;99.90;;;;;;5092199;28;19999;-92
2021/12/11 15:47:34;;;;;;;;;;;6.30;99.90;;;;;;5094625;27;20374;-91
2021/12/11 15:50:02;;;;;;;;;;;6.30;99.90;;;;;;5042336;28;19956;-91
2021/12/11 15:52:28;;;;;;;;;;;6.40;99.90;;;;;;5039057;28;19913;-91
2021/12/11 15:54:54;;;;;;;;;;;6.50;99.90;;;;;;5046480;28;19913;-91
2021/12/11 15:57:20;;;;;;;;;;;6.70;99.90;;;;;;5043070;28;19932;-91
2021/12/11 15:59:47;;;;;;;;;;;6.90;99.90;;;;;;5077659;28;19917;-93
2021/12/11 16:02:14;;;;;;;;;;;7.00;99.90;;;;;;5037510;28;19909;-90
2021/12/11 16:04:40;;;;;;;;;;;7.10;99.90;;;;;;5051243;28;19963;-92
2021/12/11 16:07:08;;;;;;;;;;;7.20;99.90;;;;;;5049858;28;19917;-92
2021/12/11 16:09:37;;;;;;;;;;;7.30;99.90;;;;;;5041957;28;20346;-92
2021/12/11 16:12:08;;;;;;;;;;;7.40;99.90;;;;;;5036754;28;19913;-91
2021/12/11 16:14:34;;;;;;;;;;;7.50;99.90;;;;;;5043883;28;19913;-90
2021/12/11 16:17:01;;;;;;;;;;;7.50;99.90;;;;;;5046464;28;19919;-92
2021/12/11 16:19:29;;;;;;;;;;;7.60;99.90;;;;;;5043881;28;19910;-91
2021/12/11 16:22:02;;;;;;;;;;;7.60;99.90;;;;;;5040754;28;20301;-91
2021/12/11 16:24:28;;;;;;;;;;;7.60;99.90;;;;;;5044205;28;19960;-92
2021/12/11 16:26:54;;;;;;;;;;;7.70;99.90;;;;;;5050576;28;19909;-91
2021/12/11 16:29:20;;;;;;;;;;;7.70;99.90;;;;;;5050731;28;19909;-92
2021/12/11 16:31:46;;;;;;;;;;;7.70;99.90;;;;;;5049245;28;20000;-91
2021/12/11 16:34:12;;;;;;;;;;;7.70;99.90;;;;;;5038745;28;19917;-92
2021/12/11 16:36:48;;;;;;;;;;;7.80;99.90;;;;;;5043442;28;19920;-92
2021/12/11 16:39:15;;;;;;;;;;;7.80;99.90;;;;;;5043977;28;19909;-92
2021/12/11 16:41:44;;;;;;;;;;;7.80;99.90;;;;;;5041434;28;19916;-92
2021/12/11 16:44:11;;;;;;;;;;;7.80;99.90;;;;;;5044569;28;20067;-92
2021/12/11 16:46:39;;;;;;;;;;;7.80;99.90;;;;;;5047356;28;20336;-92
2021/12/11 16:49:06;;;;;;;;;;;7.80;99.90;;;;;;5045573;28;20085;-91
2021/12/11 16:51:33;;;;;;;;;;;7.80;99.90;;;;;;5040931;28;20350;-91
2021/12/11 16:53:59;;;;;;;;;;;7.80;99.90;;;;;;5041805;28;19933;-92
2021/12/11 16:56:31;;;;;;;;;;;7.80;99.90;;;;;;5043291;28;21090;-90
2021/12/11 16:58:57;;;;;;;;;;;7.80;99.90;;;;;;5028973;28;19963;-92
2021/12/11 17:01:23;;;;;;;;;;;7.80;99.90;;;;;;5028776;28;19917;-92
2021/12/11 17:03:49;;;;;;;;;;;7.80;99.90;;;;;;5030060;28;19909;-91
2021/12/11 17:06:18;;;;;;;;;;;7.90;99.90;;;;;;5027082;28;19935;-91
2021/12/11 17:08:44;;;;;;;;;;;7.90;99.90;;;;;;5044231;28;20047;-94
2021/12/11 17:11:11;;;;;;;;;;;7.90;99.90;;;;;;5024952;28;19960;-92
2021/12/11 17:13:37;;;;;;;;;;;7.90;99.90;;;;;;5026256;28;19918;-91
2021/12/11 17:16:03;;;;;;;;;;;7.90;99.90;;;;;;5030311;28;20551;-91
2021/12/11 17:18:32;;;;;;;;;;;7.90;99.90;;;;;;5029066;28;19956;-91
2021/12/11 17:20:59;;;;;;;;;;;7.90;99.90;;;;;;5036539;28;19955;-92
2021/12/11 17:23:25;;;;;;;;;;;7.90;99.90;;;;;;5036502;28;20006;-92
2021/12/11 17:25:52;;;;;;;;;;;7.90;99.90;;;;;;5035297;28;19945;-92
2021/12/11 17:28:20;;;;;;;;;;;7.90;99.90;;;;;;5036440;28;19913;-92
2021/12/11 17:30:46;;;;;;;;;;;7.90;99.90;;;;;;5035277;28;19917;-91
2021/12/11 17:33:12;;;;;;;;;;;7.90;99.90;;;;;;5036401;28;19917;-92
2021/12/11 17:35:38;;;;;;;;;;;8.00;99.90;;;;;;5033140;28;19917;-91
2021/12/11 17:38:04;;;;;;;;;;;8.00;99.90;;;;;;5053677;28;19944;-92
2021/12/11 17:40:30;;;;;;;;;;;8.00;99.90;;;;;;5055171;28;19909;-92
2021/12/11 17:42:55;;;;;;;;;;;8.00;99.90;;;;;;5056848;28;19920;-91
2021/12/11 17:45:23;;;;;;;;;;;8.00;99.90;;;;;;5056114;28;19974;-91
2021/12/11 17:47:50;;;;;;;;;;;8.00;99.90;;;;;;5055787;28;19908;-91
2021/12/11 17:50:21;;;;;;;;;;;8.00;99.90;;;;;;5035345;28;19939;-92
2021/12/11 22:10:48;;;;;;;;;;;6.70;99.90;;;;;;5174997;27;19911;-91
2021/12/11 22:13:15;;;;;;;;;;;6.70;99.90;;;;;;5172857;27;19911;-90
2021/12/11 22:15:42;;;;;;;;;;;6.80;99.90;;;;;;5174373;27;19914;-91
2021/12/11 22:18:09;;;;;;;;;;;6.90;99.90;;;;;;5172706;27;19907;-89
